sensor_id;sensor_type;location;lat;lon;timestamp;P1;durP1;ratioP1;P2;durP2;ratioP2
70342;SDS011;57767;42.068;24.752;2023-04-09T00:00:24;25.00;;;18.10;;
70342;SDS011;57767;42.068;24.752;2023-04-09T00:01:26;22.27;;;17.77;;
70342;SDS011;57767;42.068;24.752;2023-04-09T00:02:28;23.17;;;17.30;;
70342;SDS011;57767;42.068;24.752;2023-04-09T00:03:30;23.35;;;17.58;;
70342;SDS011;57767;42.068;24.752;2023-04-09T00:04:32;21.85;;;16.92;;
70342;SDS011;57767;42.068;24.752;2023-04-09T00:05:37;24.52;;;17.60;;
70342;SDS011;57767;42.068;24.752;2023-04-09T00:06:40;24.48;;;17.85;;
70342;SDS011;57767;42.068;24.752;2023-04-09T00:07:42;24.83;;;18.17;;
70342;SDS011;57767;42.068;24.752;2023-04-09T00:08:44;22.33;;;17.10;;
70342;SDS011;57767;42.068;24.752;2023-04-09T00:09:46;23.98;;;18.55;;
70342;SDS011;57767;42.068;24.752;2023-04-09T00:10:48;23.98;;;17.38;;
70342;SDS011;57767;42.068;24.752;2023-04-09T00:11:51;26.95;;;18.60;;
70342;SDS011;57767;42.068;24.752;2023-04-09T00:12:52;25.48;;;19.25;;
70342;SDS011;57767;42.068;24.752;2023-04-09T00:13:54;28.13;;;18.60;;
70342;SDS011;57767;42.068;24.752;2023-04-09T00:14:57;28.10;;;20.50;;
70342;SDS011;57767;42.068;24.752;2023-04-09T00:15:59;25.17;;;19.00;;
70342;SDS011;57767;42.068;24.752;2023-04-09T00:17:01;27.30;;;18.70;;
70342;SDS011;57767;42.068;24.752;2023-04-09T00:18:02;26.50;;;19.33;;
70342;SDS011;57767;42.068;24.752;2023-04-09T00:19:04;28.50;;;19.20;;
70342;SDS011;57767;42.068;24.752;2023-04-09T00:20:06;25.95;;;19.45;;
70342;SDS011;57767;42.068;24.752;2023-04-09T00:21:08;31.33;;;21.27;;
70342;SDS011;57767;42.068;24.752;2023-04-09T00:22:10;24.50;;;19.25;;
70342;SDS011;57767;42.068;24.752;2023-04-09T00:23:12;27.02;;;19.77;;
70342;SDS011;57767;42.068;24.752;2023-04-09T00:24:14;27.85;;;20.13;;
70342;SDS011;57767;42.068;24.752;2023-04-09T00:25:16;26.50;;;19.95;;
70342;SDS011;57767;42.068;24.752;2023-04-09T00:26:18;29.75;;;20.63;;
70342;SDS011;57767;42.068;24.752;2023-04-09T00:27:20;29.08;;;20.15;;
70342;SDS011;57767;42.068;24.752;2023-04-09T00:28:22;26.05;;;20.08;;
70342;SDS011;57767;42.068;24.752;2023-04-09T00:29:23;28.13;;;19.08;;
70342;SDS011;57767;42.068;24.752;2023-04-09T00:30:27;29.02;;;21.48;;
70342;SDS011;57767;42.068;24.752;2023-04-09T00:31:30;31.23;;;21.30;;
70342;SDS011;57767;42.068;24.752;2023-04-09T00:32:32;26.75;;;20.10;;
70342;SDS011;57767;42.068;24.752;2023-04-09T00:33:33;29.75;;;20.05;;
70342;SDS011;57767;42.068;24.752;2023-04-09T00:34:35;30.85;;;21.70;;
70342;SDS011;57767;42.068;24.752;2023-04-09T00:35:37;30.90;;;21.23;;
70342;SDS011;57767;42.068;24.752;2023-04-09T00:36:39;29.27;;;20.80;;
70342;SDS011;57767;42.068;24.752;2023-04-09T00:37:41;30.20;;;22.40;;
70342;SDS011;57767;42.068;24.752;2023-04-09T00:38:42;27.70;;;20.77;;
70342;SDS011;57767;42.068;24.752;2023-04-09T00:39:45;31.10;;;21.33;;
70342;SDS011;57767;42.068;24.752;2023-04-09T00:40:48;28.10;;;20.70;;
70342;SDS011;57767;42.068;24.752;2023-04-09T00:41:57;32.10;;;21.95;;
70342;SDS011;57767;42.068;24.752;2023-04-09T00:43:00;31.95;;;20.88;;
70342;SDS011;57767;42.068;24.752;2023-04-09T00:44:02;28.83;;;21.10;;
70342;SDS011;57767;42.068;24.752;2023-04-09T00:45:04;31.70;;;22.58;;
70342;SDS011;57767;42.068;24.752;2023-04-09T00:46:07;28.38;;;20.77;;
70342;SDS011;57767;42.068;24.752;2023-04-09T00:47:09;28.77;;;20.63;;
70342;SDS011;57767;42.068;24.752;2023-04-09T00:48:13;29.08;;;20.15;;
70342;SDS011;57767;42.068;24.752;2023-04-09T00:49:16;29.70;;;21.35;;
70342;SDS011;57767;42.068;24.752;2023-04-09T00:50:18;34.55;;;22.88;;
70342;SDS011;57767;42.068;24.752;2023-04-09T00:51:20;32.97;;;23.02;;
70342;SDS011;57767;42.068;24.752;2023-04-09T00:52:22;33.80;;;22.98;;
70342;SDS011;57767;42.068;24.752;2023-04-09T00:53:24;38.33;;;24.38;;
70342;SDS011;57767;42.068;24.752;2023-04-09T00:54:26;32.60;;;22.65;;
70342;SDS011;57767;42.068;24.752;2023-04-09T00:55:28;33.08;;;22.20;;
70342;SDS011;57767;42.068;24.752;2023-04-09T00:56:31;34.30;;;23.73;;
70342;SDS011;57767;42.068;24.752;2023-04-09T00:57:33;36.42;;;24.65;;
70342;SDS011;57767;42.068;24.752;2023-04-09T00:58:35;34.47;;;24.15;;
70342;SDS011;57767;42.068;24.752;2023-04-09T00:59:37;37.13;;;24.58;;
70342;SDS011;57767;42.068;24.752;2023-04-09T01:00:39;35.90;;;23.45;;
70342;SDS011;57767;42.068;24.752;2023-04-09T01:01:41;34.75;;;24.05;;
70342;SDS011;57767;42.068;24.752;2023-04-09T01:02:43;34.65;;;23.70;;
70342;SDS011;57767;42.068;24.752;2023-04-09T01:03:45;37.70;;;24.63;;
70342;SDS011;57767;42.068;24.752;2023-04-09T01:04:47;34.55;;;23.52;;
70342;SDS011;57767;42.068;24.752;2023-04-09T01:06:11;36.80;;;25.23;;
70342;SDS011;57767;42.068;24.752;2023-04-09T01:13:30;37.35;;;25.40;;
70342;SDS011;57767;42.068;24.752;2023-04-09T01:15:55;40.15;;;25.15;;
70342;SDS011;57767;42.068;24.752;2023-04-09T01:17:02;42.85;;;26.38;;
70342;SDS011;57767;42.068;24.752;2023-04-09T01:19:53;39.67;;;26.00;;
70342;SDS011;57767;42.068;24.752;2023-04-09T01:27:01;43.25;;;26.55;;
70342;SDS011;57767;42.068;24.752;2023-04-09T01:29:17;46.47;;;28.67;;
70342;SDS011;57767;42.068;24.752;2023-04-09T01:30:21;50.47;;;28.35;;
70342;SDS011;57767;42.068;24.752;2023-04-09T01:31:33;45.67;;;28.15;;
70342;SDS011;57767;42.068;24.752;2023-04-09T01:32:37;43.72;;;27.63;;
70342;SDS011;57767;42.068;24.752;2023-04-09T01:33:41;47.90;;;28.38;;
70342;SDS011;57767;42.068;24.752;2023-04-09T01:34:46;43.47;;;28.05;;
70342;SDS011;57767;42.068;24.752;2023-04-09T01:35:49;44.00;;;29.02;;
70342;SDS011;57767;42.068;24.752;2023-04-09T01:36:54;45.78;;;28.33;;
70342;SDS011;57767;42.068;24.752;2023-04-09T01:37:59;45.00;;;28.55;;
70342;SDS011;57767;42.068;24.752;2023-04-09T01:39:01;45.97;;;27.83;;
70342;SDS011;57767;42.068;24.752;2023-04-09T01:40:04;45.75;;;28.63;;
70342;SDS011;57767;42.068;24.752;2023-04-09T01:41:11;42.88;;;27.52;;
70342;SDS011;57767;42.068;24.752;2023-04-09T01:42:17;45.67;;;28.45;;
70342;SDS011;57767;42.068;24.752;2023-04-09T01:43:19;42.50;;;27.42;;
70342;SDS011;57767;42.068;24.752;2023-04-09T01:44:22;42.80;;;28.77;;
70342;SDS011;57767;42.068;24.752;2023-04-09T01:45:26;41.70;;;26.65;;
70342;SDS011;57767;42.068;24.752;2023-04-09T01:46:28;42.65;;;27.95;;
70342;SDS011;57767;42.068;24.752;2023-04-09T01:47:31;42.03;;;28.90;;
70342;SDS011;57767;42.068;24.752;2023-04-09T01:48:33;40.80;;;26.63;;
70342;SDS011;57767;42.068;24.752;2023-04-09T01:49:36;40.10;;;27.00;;
70342;SDS011;57767;42.068;24.752;2023-04-09T01:50:40;35.90;;;25.92;;
70342;SDS011;57767;42.068;24.752;2023-04-09T01:51:42;38.28;;;26.35;;
70342;SDS011;57767;42.068;24.752;2023-04-09T01:52:44;36.95;;;25.48;;
70342;SDS011;57767;42.068;24.752;2023-04-09T01:53:47;35.80;;;24.17;;
70342;SDS011;57767;42.068;24.752;2023-04-09T01:54:49;32.63;;;23.65;;
70342;SDS011;57767;42.068;24.752;2023-04-09T01:55:51;35.60;;;24.98;;
70342;SDS011;57767;42.068;24.752;2023-04-09T01:56:52;35.53;;;24.88;;
70342;SDS011;57767;42.068;24.752;2023-04-09T01:57:57;34.60;;;25.42;;
70342;SDS011;57767;42.068;24.752;2023-04-09T01:58:59;38.13;;;26.10;;
70342;SDS011;57767;42.068;24.752;2023-04-09T02:00:01;37.53;;;25.83;;
70342;SDS011;57767;42.068;24.752;2023-04-09T02:02:16;37.85;;;25.23;;
70342;SDS011;57767;42.068;24.752;2023-04-09T02:03:22;35.45;;;25.35;;
70342;SDS011;57767;42.068;24.752;2023-04-09T02:05:37;38.63;;;26.17;;
70342;SDS011;57767;42.068;24.752;2023-04-09T02:08:15;37.95;;;24.70;;
70342;SDS011;57767;42.068;24.752;2023-04-09T02:09:21;38.38;;;25.15;;
70342;SDS011;57767;42.068;24.752;2023-04-09T02:10:28;37.42;;;25.52;;
70342;SDS011;57767;42.068;24.752;2023-04-09T02:11:32;38.78;;;26.60;;
70342;SDS011;57767;42.068;24.752;2023-04-09T02:12:35;40.13;;;27.90;;
70342;SDS011;57767;42.068;24.752;2023-04-09T02:13:39;42.05;;;27.75;;
70342;SDS011;57767;42.068;24.752;2023-04-09T02:14:41;38.53;;;26.92;;
70342;SDS011;57767;42.068;24.752;2023-04-09T02:15:46;40.03;;;27.15;;
70342;SDS011;57767;42.068;24.752;2023-04-09T02:16:51;38.75;;;27.75;;
70342;SDS011;57767;42.068;24.752;2023-04-09T02:17:53;39.78;;;27.00;;
70342;SDS011;57767;42.068;24.752;2023-04-09T02:18:56;42.42;;;27.52;;
70342;SDS011;57767;42.068;24.752;2023-04-09T02:19:58;37.53;;;26.60;;
70342;SDS011;57767;42.068;24.752;2023-04-09T02:20:59;41.80;;;27.58;;
70342;SDS011;57767;42.068;24.752;2023-04-09T02:22:03;41.58;;;27.92;;
70342;SDS011;57767;42.068;24.752;2023-04-09T02:23:05;46.55;;;30.15;;
70342;SDS011;57767;42.068;24.752;2023-04-09T02:24:06;48.65;;;29.88;;
70342;SDS011;57767;42.068;24.752;2023-04-09T02:25:08;40.65;;;28.33;;
70342;SDS011;57767;42.068;24.752;2023-04-09T02:26:10;43.03;;;29.00;;
70342;SDS011;57767;42.068;24.752;2023-04-09T02:27:12;41.08;;;27.08;;
70342;SDS011;57767;42.068;24.752;2023-04-09T02:28:13;38.35;;;26.77;;
70342;SDS011;57767;42.068;24.752;2023-04-09T02:29:15;39.58;;;25.67;;
70342;SDS011;57767;42.068;24.752;2023-04-09T02:30:17;39.55;;;26.77;;
70342;SDS011;57767;42.068;24.752;2023-04-09T02:31:19;40.08;;;25.58;;
70342;SDS011;57767;42.068;24.752;2023-04-09T02:32:21;38.10;;;25.98;;
70342;SDS011;57767;42.068;24.752;2023-04-09T02:33:22;39.85;;;25.25;;
70342;SDS011;57767;42.068;24.752;2023-04-09T02:34:24;38.35;;;25.95;;
70342;SDS011;57767;42.068;24.752;2023-04-09T02:35:26;44.72;;;26.55;;
70342;SDS011;57767;42.068;24.752;2023-04-09T02:36:28;39.30;;;25.73;;
70342;SDS011;57767;42.068;24.752;2023-04-09T02:37:29;39.50;;;25.60;;
70342;SDS011;57767;42.068;24.752;2023-04-09T02:38:31;40.17;;;26.85;;
70342;SDS011;57767;42.068;24.752;2023-04-09T02:39:33;40.50;;;25.80;;
70342;SDS011;57767;42.068;24.752;2023-04-09T02:40:35;42.50;;;26.42;;
70342;SDS011;57767;42.068;24.752;2023-04-09T02:41:37;39.65;;;25.63;;
70342;SDS011;57767;42.068;24.752;2023-04-09T02:42:38;39.38;;;25.77;;
70342;SDS011;57767;42.068;24.752;2023-04-09T02:43:40;40.05;;;26.52;;
70342;SDS011;57767;42.068;24.752;2023-04-09T02:44:42;40.90;;;26.35;;
70342;SDS011;57767;42.068;24.752;2023-04-09T02:45:44;38.20;;;25.00;;
70342;SDS011;57767;42.068;24.752;2023-04-09T02:46:46;39.50;;;25.40;;
70342;SDS011;57767;42.068;24.752;2023-04-09T02:47:49;35.45;;;25.23;;
70342;SDS011;57767;42.068;24.752;2023-04-09T02:48:51;40.08;;;25.98;;
70342;SDS011;57767;42.068;24.752;2023-04-09T02:49:53;39.97;;;24.17;;
70342;SDS011;57767;42.068;24.752;2023-04-09T02:50:55;42.20;;;25.42;;
70342;SDS011;57767;42.068;24.752;2023-04-09T02:51:57;36.72;;;25.42;;
70342;SDS011;57767;42.068;24.752;2023-04-09T02:52:59;41.65;;;26.08;;
70342;SDS011;57767;42.068;24.752;2023-04-09T02:54:00;37.90;;;25.02;;
70342;SDS011;57767;42.068;24.752;2023-04-09T02:55:02;43.97;;;25.95;;
70342;SDS011;57767;42.068;24.752;2023-04-09T02:56:04;44.53;;;26.10;;
70342;SDS011;57767;42.068;24.752;2023-04-09T02:57:06;44.00;;;26.13;;
70342;SDS011;57767;42.068;24.752;2023-04-09T02:58:08;39.65;;;25.88;;
70342;SDS011;57767;42.068;24.752;2023-04-09T02:59:10;40.25;;;25.63;;
70342;SDS011;57767;42.068;24.752;2023-04-09T03:00:12;41.83;;;26.33;;
70342;SDS011;57767;42.068;24.752;2023-04-09T03:01:14;44.78;;;27.52;;
70342;SDS011;57767;42.068;24.752;2023-04-09T03:02:15;44.28;;;28.63;;
70342;SDS011;57767;42.068;24.752;2023-04-09T03:03:17;44.10;;;25.67;;
70342;SDS011;57767;42.068;24.752;2023-04-09T03:04:19;40.50;;;26.85;;
70342;SDS011;57767;42.068;24.752;2023-04-09T03:05:21;42.08;;;27.08;;
70342;SDS011;57767;42.068;24.752;2023-04-09T03:06:23;48.58;;;29.55;;
70342;SDS011;57767;42.068;24.752;2023-04-09T03:07:24;44.70;;;27.35;;
70342;SDS011;57767;42.068;24.752;2023-04-09T03:08:26;45.83;;;28.27;;
70342;SDS011;57767;42.068;24.752;2023-04-09T03:09:28;42.63;;;26.98;;
70342;SDS011;57767;42.068;24.752;2023-04-09T03:10:31;50.22;;;28.40;;
70342;SDS011;57767;42.068;24.752;2023-04-09T03:11:32;44.00;;;27.65;;
70342;SDS011;57767;42.068;24.752;2023-04-09T03:12:34;47.70;;;28.58;;
70342;SDS011;57767;42.068;24.752;2023-04-09T03:13:36;44.50;;;27.70;;
70342;SDS011;57767;42.068;24.752;2023-04-09T03:14:38;46.30;;;29.33;;
70342;SDS011;57767;42.068;24.752;2023-04-09T03:15:39;43.00;;;28.13;;
70342;SDS011;57767;42.068;24.752;2023-04-09T03:16:41;44.25;;;28.48;;
70342;SDS011;57767;42.068;24.752;2023-04-09T03:17:43;50.08;;;30.08;;
70342;SDS011;57767;42.068;24.752;2023-04-09T03:18:45;46.22;;;28.63;;
70342;SDS011;57767;42.068;24.752;2023-04-09T03:19:47;50.42;;;29.38;;
70342;SDS011;57767;42.068;24.752;2023-04-09T03:20:49;46.85;;;29.23;;
70342;SDS011;57767;42.068;24.752;2023-04-09T03:21:50;49.58;;;29.83;;
70342;SDS011;57767;42.068;24.752;2023-04-09T03:22:52;43.75;;;28.50;;
70342;SDS011;57767;42.068;24.752;2023-04-09T03:23:54;48.88;;;29.90;;
70342;SDS011;57767;42.068;24.752;2023-04-09T03:24:56;45.15;;;29.65;;
70342;SDS011;57767;42.068;24.752;2023-04-09T03:26:01;47.40;;;27.98;;
70342;SDS011;57767;42.068;24.752;2023-04-09T03:27:04;51.10;;;29.27;;
70342;SDS011;57767;42.068;24.752;2023-04-09T03:28:06;46.55;;;29.60;;
70342;SDS011;57767;42.068;24.752;2023-04-09T03:29:07;46.67;;;30.20;;
70342;SDS011;57767;42.068;24.752;2023-04-09T03:30:09;50.40;;;30.17;;
70342;SDS011;57767;42.068;24.752;2023-04-09T03:31:11;48.08;;;29.63;;
70342;SDS011;57767;42.068;24.752;2023-04-09T03:32:14;53.90;;;30.42;;
70342;SDS011;57767;42.068;24.752;2023-04-09T03:33:19;51.53;;;30.20;;
70342;SDS011;57767;42.068;24.752;2023-04-09T03:34:21;48.30;;;30.05;;
70342;SDS011;57767;42.068;24.752;2023-04-09T03:35:22;49.10;;;28.73;;
70342;SDS011;57767;42.068;24.752;2023-04-09T03:36:24;53.80;;;29.25;;
70342;SDS011;57767;42.068;24.752;2023-04-09T03:37:28;51.70;;;30.38;;
70342;SDS011;57767;42.068;24.752;2023-04-09T03:38:29;54.88;;;31.30;;
70342;SDS011;57767;42.068;24.752;2023-04-09T03:39:31;56.15;;;30.67;;
70342;SDS011;57767;42.068;24.752;2023-04-09T03:40:33;51.70;;;30.92;;
70342;SDS011;57767;42.068;24.752;2023-04-09T03:41:36;58.65;;;30.75;;
70342;SDS011;57767;42.068;24.752;2023-04-09T03:42:38;56.38;;;29.25;;
70342;SDS011;57767;42.068;24.752;2023-04-09T03:43:42;61.72;;;31.50;;
70342;SDS011;57767;42.068;24.752;2023-04-09T03:44:44;57.85;;;31.75;;
70342;SDS011;57767;42.068;24.752;2023-04-09T03:45:46;56.67;;;32.83;;
70342;SDS011;57767;42.068;24.752;2023-04-09T03:46:47;59.17;;;30.73;;
70342;SDS011;57767;42.068;24.752;2023-04-09T03:47:49;55.45;;;30.73;;
70342;SDS011;57767;42.068;24.752;2023-04-09T03:48:51;59.03;;;30.65;;
70342;SDS011;57767;42.068;24.752;2023-04-09T03:49:53;58.80;;;32.00;;
70342;SDS011;57767;42.068;24.752;2023-04-09T03:50:55;57.35;;;30.08;;
70342;SDS011;57767;42.068;24.752;2023-04-09T03:51:57;57.83;;;30.45;;
70342;SDS011;57767;42.068;24.752;2023-04-09T03:52:58;52.63;;;30.30;;
70342;SDS011;57767;42.068;24.752;2023-04-09T03:54:01;62.92;;;29.77;;
70342;SDS011;57767;42.068;24.752;2023-04-09T03:55:03;55.88;;;29.58;;
70342;SDS011;57767;42.068;24.752;2023-04-09T03:56:05;60.75;;;31.75;;
70342;SDS011;57767;42.068;24.752;2023-04-09T03:57:07;58.90;;;30.30;;
70342;SDS011;57767;42.068;24.752;2023-04-09T03:58:09;59.92;;;30.73;;
70342;SDS011;57767;42.068;24.752;2023-04-09T03:59:11;59.90;;;31.20;;
70342;SDS011;57767;42.068;24.752;2023-04-09T04:00:13;57.53;;;30.05;;
70342;SDS011;57767;42.068;24.752;2023-04-09T04:01:15;62.05;;;31.10;;
70342;SDS011;57767;42.068;24.752;2023-04-09T04:02:16;62.13;;;30.80;;
70342;SDS011;57767;42.068;24.752;2023-04-09T04:03:18;57.35;;;29.63;;
70342;SDS011;57767;42.068;24.752;2023-04-09T04:04:20;59.83;;;30.60;;
70342;SDS011;57767;42.068;24.752;2023-04-09T04:05:24;60.65;;;29.50;;
70342;SDS011;57767;42.068;24.752;2023-04-09T04:06:26;59.05;;;30.80;;
70342;SDS011;57767;42.068;24.752;2023-04-09T04:07:28;66.15;;;31.33;;
70342;SDS011;57767;42.068;24.752;2023-04-09T04:08:30;59.85;;;31.17;;
70342;SDS011;57767;42.068;24.752;2023-04-09T04:09:31;62.38;;;31.15;;
70342;SDS011;57767;42.068;24.752;2023-04-09T04:10:33;62.53;;;31.52;;
70342;SDS011;57767;42.068;24.752;2023-04-09T04:11:35;63.38;;;31.58;;
70342;SDS011;57767;42.068;24.752;2023-04-09T04:12:37;62.25;;;32.47;;
70342;SDS011;57767;42.068;24.752;2023-04-09T04:13:38;56.63;;;30.02;;
70342;SDS011;57767;42.068;24.752;2023-04-09T04:14:40;64.35;;;32.00;;
70342;SDS011;57767;42.068;24.752;2023-04-09T04:15:42;59.40;;;30.58;;
70342;SDS011;57767;42.068;24.752;2023-04-09T04:16:44;70.43;;;31.67;;
70342;SDS011;57767;42.068;24.752;2023-04-09T04:17:45;72.50;;;32.92;;
70342;SDS011;57767;42.068;24.752;2023-04-09T04:18:47;70.47;;;32.70;;
70342;SDS011;57767;42.068;24.752;2023-04-09T04:19:49;70.45;;;32.20;;
70342;SDS011;57767;42.068;24.752;2023-04-09T04:20:51;74.63;;;32.97;;
70342;SDS011;57767;42.068;24.752;2023-04-09T04:21:52;68.93;;;33.53;;
70342;SDS011;57767;42.068;24.752;2023-04-09T04:22:54;73.90;;;33.67;;
70342;SDS011;57767;42.068;24.752;2023-04-09T04:23:56;67.07;;;32.72;;
70342;SDS011;57767;42.068;24.752;2023-04-09T04:24:58;74.20;;;34.47;;
70342;SDS011;57767;42.068;24.752;2023-04-09T04:25:59;69.72;;;33.83;;
70342;SDS011;57767;42.068;24.752;2023-04-09T04:27:01;63.53;;;32.65;;
70342;SDS011;57767;42.068;24.752;2023-04-09T04:28:03;61.75;;;31.90;;
70342;SDS011;57767;42.068;24.752;2023-04-09T04:29:04;63.17;;;30.95;;
70342;SDS011;57767;42.068;24.752;2023-04-09T04:30:07;67.47;;;32.53;;
70342;SDS011;57767;42.068;24.752;2023-04-09T04:31:09;63.53;;;31.67;;
70342;SDS011;57767;42.068;24.752;2023-04-09T04:32:12;70.25;;;33.13;;
70342;SDS011;57767;42.068;24.752;2023-04-09T04:33:14;62.38;;;32.03;;
70342;SDS011;57767;42.068;24.752;2023-04-09T04:34:16;59.25;;;30.27;;
70342;SDS011;57767;42.068;24.752;2023-04-09T04:35:17;65.22;;;33.10;;
70342;SDS011;57767;42.068;24.752;2023-04-09T04:36:19;64.03;;;31.75;;
70342;SDS011;57767;42.068;24.752;2023-04-09T04:37:21;60.35;;;31.13;;
70342;SDS011;57767;42.068;24.752;2023-04-09T04:38:23;63.72;;;32.45;;
70342;SDS011;57767;42.068;24.752;2023-04-09T04:39:24;64.93;;;31.52;;
70342;SDS011;57767;42.068;24.752;2023-04-09T04:40:26;65.40;;;30.75;;
70342;SDS011;57767;42.068;24.752;2023-04-09T04:41:28;62.72;;;32.58;;
70342;SDS011;57767;42.068;24.752;2023-04-09T04:42:30;68.72;;;32.75;;
70342;SDS011;57767;42.068;24.752;2023-04-09T04:43:31;65.72;;;30.75;;
70342;SDS011;57767;42.068;24.752;2023-04-09T04:44:33;63.22;;;31.63;;
70342;SDS011;57767;42.068;24.752;2023-04-09T04:45:35;59.85;;;30.75;;
70342;SDS011;57767;42.068;24.752;2023-04-09T04:46:37;67.15;;;30.70;;
70342;SDS011;57767;42.068;24.752;2023-04-09T04:47:39;60.25;;;30.95;;
70342;SDS011;57767;42.068;24.752;2023-04-09T04:48:41;64.55;;;30.17;;
70342;SDS011;57767;42.068;24.752;2023-04-09T04:49:42;62.03;;;31.10;;
70342;SDS011;57767;42.068;24.752;2023-04-09T04:50:44;57.95;;;29.83;;
70342;SDS011;57767;42.068;24.752;2023-04-09T04:51:46;64.22;;;31.15;;
70342;SDS011;57767;42.068;24.752;2023-04-09T04:52:47;63.05;;;31.10;;
70342;SDS011;57767;42.068;24.752;2023-04-09T04:53:49;62.83;;;30.92;;
70342;SDS011;57767;42.068;24.752;2023-04-09T04:54:51;64.85;;;30.13;;
70342;SDS011;57767;42.068;24.752;2023-04-09T04:55:53;66.38;;;31.60;;
70342;SDS011;57767;42.068;24.752;2023-04-09T04:56:55;61.42;;;30.35;;
70342;SDS011;57767;42.068;24.752;2023-04-09T04:57:57;64.70;;;30.52;;
70342;SDS011;57767;42.068;24.752;2023-04-09T04:58:59;62.63;;;31.45;;
70342;SDS011;57767;42.068;24.752;2023-04-09T05:00:01;67.22;;;29.40;;
70342;SDS011;57767;42.068;24.752;2023-04-09T05:01:03;67.50;;;30.33;;
70342;SDS011;57767;42.068;24.752;2023-04-09T05:02:05;67.90;;;30.20;;
70342;SDS011;57767;42.068;24.752;2023-04-09T05:03:08;66.32;;;31.45;;
70342;SDS011;57767;42.068;24.752;2023-04-09T05:04:09;67.78;;;30.35;;
70342;SDS011;57767;42.068;24.752;2023-04-09T05:05:11;70.70;;;30.95;;
70342;SDS011;57767;42.068;24.752;2023-04-09T05:06:13;65.45;;;30.45;;
70342;SDS011;57767;42.068;24.752;2023-04-09T05:07:15;65.20;;;31.40;;
70342;SDS011;57767;42.068;24.752;2023-04-09T05:08:16;67.20;;;30.30;;
70342;SDS011;57767;42.068;24.752;2023-04-09T05:09:18;68.95;;;31.27;;
70342;SDS011;57767;42.068;24.752;2023-04-09T05:10:22;69.63;;;32.40;;
70342;SDS011;57767;42.068;24.752;2023-04-09T05:11:24;70.65;;;31.25;;
70342;SDS011;57767;42.068;24.752;2023-04-09T05:12:26;60.70;;;29.73;;
70342;SDS011;57767;42.068;24.752;2023-04-09T05:13:27;63.58;;;29.23;;
70342;SDS011;57767;42.068;24.752;2023-04-09T05:14:29;68.82;;;30.73;;
70342;SDS011;57767;42.068;24.752;2023-04-09T05:15:31;63.40;;;29.48;;
70342;SDS011;57767;42.068;24.752;2023-04-09T05:16:33;66.90;;;30.15;;
70342;SDS011;57767;42.068;24.752;2023-04-09T05:17:35;66.60;;;31.55;;
70342;SDS011;57767;42.068;24.752;2023-04-09T05:18:37;66.78;;;31.50;;
70342;SDS011;57767;42.068;24.752;2023-04-09T05:19:38;66.97;;;32.13;;
70342;SDS011;57767;42.068;24.752;2023-04-09T05:20:40;68.95;;;31.60;;
70342;SDS011;57767;42.068;24.752;2023-04-09T05:21:42;65.57;;;30.05;;
70342;SDS011;57767;42.068;24.752;2023-04-09T05:22:47;67.30;;;31.02;;
70342;SDS011;57767;42.068;24.752;2023-04-09T05:23:48;70.15;;;32.63;;
70342;SDS011;57767;42.068;24.752;2023-04-09T05:24:50;69.13;;;31.50;;
70342;SDS011;57767;42.068;24.752;2023-04-09T05:25:52;70.18;;;31.85;;
70342;SDS011;57767;42.068;24.752;2023-04-09T05:26:54;69.47;;;32.13;;
70342;SDS011;57767;42.068;24.752;2023-04-09T05:27:56;73.57;;;32.55;;
70342;SDS011;57767;42.068;24.752;2023-04-09T05:28:58;77.75;;;32.92;;
70342;SDS011;57767;42.068;24.752;2023-04-09T05:30:00;71.43;;;33.08;;
70342;SDS011;57767;42.068;24.752;2023-04-09T05:31:01;80.53;;;32.95;;
70342;SDS011;57767;42.068;24.752;2023-04-09T05:32:03;78.00;;;32.72;;
70342;SDS011;57767;42.068;24.752;2023-04-09T05:33:06;80.35;;;34.38;;
70342;SDS011;57767;42.068;24.752;2023-04-09T05:34:07;70.13;;;32.15;;
70342;SDS011;57767;42.068;24.752;2023-04-09T05:35:12;67.30;;;31.52;;
70342;SDS011;57767;42.068;24.752;2023-04-09T05:36:14;79.30;;;32.65;;
70342;SDS011;57767;42.068;24.752;2023-04-09T05:37:17;75.82;;;33.50;;
70342;SDS011;57767;42.068;24.752;2023-04-09T05:38:19;71.65;;;33.05;;
70342;SDS011;57767;42.068;24.752;2023-04-09T05:39:21;71.53;;;34.17;;
70342;SDS011;57767;42.068;24.752;2023-04-09T05:40:22;74.80;;;31.83;;
70342;SDS011;57767;42.068;24.752;2023-04-09T05:41:24;75.45;;;32.92;;
70342;SDS011;57767;42.068;24.752;2023-04-09T05:42:26;74.82;;;34.30;;
70342;SDS011;57767;42.068;24.752;2023-04-09T05:43:28;78.00;;;32.40;;
70342;SDS011;57767;42.068;24.752;2023-04-09T05:44:29;74.28;;;33.40;;
70342;SDS011;57767;42.068;24.752;2023-04-09T05:45:31;75.97;;;32.38;;
70342;SDS011;57767;42.068;24.752;2023-04-09T05:46:33;77.75;;;32.30;;
70342;SDS011;57767;42.068;24.752;2023-04-09T05:47:35;77.63;;;32.17;;
70342;SDS011;57767;42.068;24.752;2023-04-09T05:48:37;76.60;;;32.92;;
70342;SDS011;57767;42.068;24.752;2023-04-09T05:49:39;67.00;;;32.03;;
70342;SDS011;57767;42.068;24.752;2023-04-09T05:50:40;74.82;;;34.45;;
70342;SDS011;57767;42.068;24.752;2023-04-09T05:51:55;73.88;;;32.95;;
70342;SDS011;57767;42.068;24.752;2023-04-09T05:52:57;81.25;;;37.03;;
70342;SDS011;57767;42.068;24.752;2023-04-09T05:53:59;75.30;;;34.78;;
70342;SDS011;57767;42.068;24.752;2023-04-09T05:55:01;79.45;;;34.92;;
70342;SDS011;57767;42.068;24.752;2023-04-09T05:56:11;76.50;;;31.90;;
70342;SDS011;57767;42.068;24.752;2023-04-09T05:57:14;74.53;;;33.45;;
70342;SDS011;57767;42.068;24.752;2023-04-09T05:58:16;95.03;;;43.92;;
70342;SDS011;57767;42.068;24.752;2023-04-09T05:59:21;229.75;;;91.80;;
70342;SDS011;57767;42.068;24.752;2023-04-09T06:00:23;82.30;;;35.00;;
70342;SDS011;57767;42.068;24.752;2023-04-09T06:01:25;83.28;;;34.05;;
70342;SDS011;57767;42.068;24.752;2023-04-09T06:02:27;70.55;;;32.53;;
70342;SDS011;57767;42.068;24.752;2023-04-09T06:03:30;76.05;;;33.78;;
70342;SDS011;57767;42.068;24.752;2023-04-09T06:04:32;74.63;;;32.72;;
70342;SDS011;57767;42.068;24.752;2023-04-09T06:05:34;73.05;;;33.00;;
70342;SDS011;57767;42.068;24.752;2023-04-09T06:06:39;73.78;;;32.67;;
70342;SDS011;57767;42.068;24.752;2023-04-09T06:07:41;70.32;;;32.08;;
70342;SDS011;57767;42.068;24.752;2023-04-09T06:08:43;69.75;;;30.67;;
70342;SDS011;57767;42.068;24.752;2023-04-09T06:09:45;78.75;;;33.33;;
70342;SDS011;57767;42.068;24.752;2023-04-09T06:10:47;68.53;;;32.80;;
70342;SDS011;57767;42.068;24.752;2023-04-09T06:11:48;72.57;;;33.50;;
70342;SDS011;57767;42.068;24.752;2023-04-09T06:12:50;66.60;;;31.90;;
70342;SDS011;57767;42.068;24.752;2023-04-09T06:13:52;73.28;;;32.85;;
70342;SDS011;57767;42.068;24.752;2023-04-09T06:14:54;65.00;;;32.53;;
70342;SDS011;57767;42.068;24.752;2023-04-09T06:15:56;75.43;;;34.20;;
70342;SDS011;57767;42.068;24.752;2023-04-09T06:16:58;65.95;;;31.08;;
70342;SDS011;57767;42.068;24.752;2023-04-09T06:18:00;75.13;;;33.85;;
70342;SDS011;57767;42.068;24.752;2023-04-09T06:19:02;75.78;;;34.13;;
70342;SDS011;57767;42.068;24.752;2023-04-09T06:20:04;72.43;;;34.50;;